sensor_id;sensor_type;location;lat;lon;timestamp;P1;durP1;ratioP1;P2;durP2;ratioP2
62610;SDS011;48683;48.084;17.272;2023-02-24T00:01:42;35.22;;;21.95;;
62610;SDS011;48683;48.084;17.272;2023-02-24T00:04:15;42.05;;;25.95;;
62610;SDS011;48683;48.084;17.272;2023-02-24T00:06:41;51.58;;;25.88;;
62610;SDS011;48683;48.084;17.272;2023-02-24T00:11:40;37.67;;;23.92;;
62610;SDS011;48683;48.084;17.272;2023-02-24T00:14:10;39.83;;;24.10;;
62610;SDS011;48683;48.084;17.272;2023-02-24T00:16:40;41.95;;;23.30;;
62610;SDS011;48683;48.084;17.272;2023-02-24T00:19:06;37.40;;;22.42;;
62610;SDS011;48683;48.084;17.272;2023-02-24T00:21:32;31.98;;;20.58;;
62610;SDS011;48683;48.084;17.272;2023-02-24T00:23:58;39.93;;;21.70;;
62610;SDS011;48683;48.084;17.272;2023-02-24T00:26:23;44.38;;;21.77;;
62610;SDS011;48683;48.084;17.272;2023-02-24T00:28:49;39.33;;;22.48;;
62610;SDS011;48683;48.084;17.272;2023-02-24T00:31:15;41.95;;;23.50;;
62610;SDS011;48683;48.084;17.272;2023-02-24T00:33:43;37.25;;;24.17;;
62610;SDS011;48683;48.084;17.272;2023-02-24T00:36:11;45.90;;;27.73;;
62610;SDS011;48683;48.084;17.272;2023-02-24T00:38:40;47.70;;;27.33;;
62610;SDS011;48683;48.084;17.272;2023-02-24T00:41:13;44.08;;;24.77;;
62610;SDS011;48683;48.084;17.272;2023-02-24T00:43:40;41.83;;;25.75;;
62610;SDS011;48683;48.084;17.272;2023-02-24T00:48:46;43.00;;;25.50;;
62610;SDS011;48683;48.084;17.272;2023-02-24T00:51:13;46.13;;;26.88;;
62610;SDS011;48683;48.084;17.272;2023-02-24T00:53:41;45.28;;;24.52;;
62610;SDS011;48683;48.084;17.272;2023-02-24T00:56:09;38.15;;;23.77;;
62610;SDS011;48683;48.084;17.272;2023-02-24T00:58:36;40.05;;;23.05;;
62610;SDS011;48683;48.084;17.272;2023-02-24T01:01:02;34.17;;;21.55;;
62610;SDS011;48683;48.084;17.272;2023-02-24T01:03:29;41.53;;;20.33;;
62610;SDS011;48683;48.084;17.272;2023-02-24T01:05:58;37.47;;;20.05;;
62610;SDS011;48683;48.084;17.272;2023-02-24T01:08:25;35.85;;;20.33;;
62610;SDS011;48683;48.084;17.272;2023-02-24T01:10:55;31.92;;;18.95;;
62610;SDS011;48683;48.084;17.272;2023-02-24T01:13:41;34.17;;;19.65;;
62610;SDS011;48683;48.084;17.272;2023-02-24T01:16:07;36.13;;;19.73;;
62610;SDS011;48683;48.084;17.272;2023-02-24T01:18:32;35.67;;;19.38;;
62610;SDS011;48683;48.084;17.272;2023-02-24T01:20:58;37.50;;;19.90;;
62610;SDS011;48683;48.084;17.272;2023-02-24T01:23:23;33.42;;;20.17;;
62610;SDS011;48683;48.084;17.272;2023-02-24T01:25:50;35.97;;;19.67;;
62610;SDS011;48683;48.084;17.272;2023-02-24T01:28:15;33.78;;;19.38;;
62610;SDS011;48683;48.084;17.272;2023-02-24T01:30:41;32.97;;;19.40;;
62610;SDS011;48683;48.084;17.272;2023-02-24T01:33:08;36.25;;;19.23;;
62610;SDS011;48683;48.084;17.272;2023-02-24T01:35:38;33.15;;;18.25;;
62610;SDS011;48683;48.084;17.272;2023-02-24T01:38:04;31.02;;;19.90;;
62610;SDS011;48683;48.084;17.272;2023-02-24T01:40:29;34.40;;;18.20;;
62610;SDS011;48683;48.084;17.272;2023-02-24T01:42:55;32.97;;;18.58;;
62610;SDS011;48683;48.084;17.272;2023-02-24T01:45:21;35.90;;;19.23;;
62610;SDS011;48683;48.084;17.272;2023-02-24T01:47:49;29.55;;;18.38;;
62610;SDS011;48683;48.084;17.272;2023-02-24T01:50:16;27.85;;;18.17;;
62610;SDS011;48683;48.084;17.272;2023-02-24T01:52:45;43.78;;;18.42;;
62610;SDS011;48683;48.084;17.272;2023-02-24T01:55:13;34.93;;;19.37;;
62610;SDS011;48683;48.084;17.272;2023-02-24T01:57:44;29.92;;;18.35;;
62610;SDS011;48683;48.084;17.272;2023-02-24T02:00:10;35.45;;;18.27;;
62610;SDS011;48683;48.084;17.272;2023-02-24T02:02:45;27.73;;;16.73;;
62610;SDS011;48683;48.084;17.272;2023-02-24T02:05:16;30.60;;;18.13;;
62610;SDS011;48683;48.084;17.272;2023-02-24T02:07:42;28.75;;;17.98;;
62610;SDS011;48683;48.084;17.272;2023-02-24T02:10:09;34.05;;;17.92;;
62610;SDS011;48683;48.084;17.272;2023-02-24T02:12:37;37.83;;;19.38;;
62610;SDS011;48683;48.084;17.272;2023-02-24T02:15:08;34.80;;;19.60;;
62610;SDS011;48683;48.084;17.272;2023-02-24T02:42:18;34.42;;;18.98;;
62610;SDS011;48683;48.084;17.272;2023-02-24T02:47:38;33.13;;;17.42;;
62610;SDS011;48683;48.084;17.272;2023-02-24T02:52:57;31.38;;;17.45;;
62610;SDS011;48683;48.084;17.272;2023-02-24T02:55:45;32.95;;;17.55;;
62610;SDS011;48683;48.084;17.272;2023-02-24T02:58:18;35.35;;;18.73;;
62610;SDS011;48683;48.084;17.272;2023-02-24T03:00:48;30.98;;;17.70;;
62610;SDS011;48683;48.084;17.272;2023-02-24T03:03:26;27.75;;;17.27;;
62610;SDS011;48683;48.084;17.272;2023-02-24T03:06:05;32.70;;;17.75;;
62610;SDS011;48683;48.084;17.272;2023-02-24T03:08:35;35.80;;;18.88;;
62610;SDS011;48683;48.084;17.272;2023-02-24T03:11:05;34.97;;;18.90;;
62610;SDS011;48683;48.084;17.272;2023-02-24T03:13:35;33.58;;;18.92;;
62610;SDS011;48683;48.084;17.272;2023-02-24T03:16:03;34.55;;;18.13;;
62610;SDS011;48683;48.084;17.272;2023-02-24T03:18:32;35.13;;;19.20;;
62610;SDS011;48683;48.084;17.272;2023-02-24T03:21:03;25.50;;;18.15;;
62610;SDS011;48683;48.084;17.272;2023-02-24T03:23:31;28.75;;;18.05;;
62610;SDS011;48683;48.084;17.272;2023-02-24T03:31:59;32.22;;;18.70;;
62610;SDS011;48683;48.084;17.272;2023-02-24T03:37:07;31.40;;;17.42;;
62610;SDS011;48683;48.084;17.272;2023-02-24T03:39:33;31.80;;;17.45;;
62610;SDS011;48683;48.084;17.272;2023-02-24T03:42:15;33.95;;;19.33;;
62610;SDS011;48683;48.084;17.272;2023-02-24T03:47:11;28.53;;;17.80;;
62610;SDS011;48683;48.084;17.272;2023-02-24T03:49:38;27.85;;;17.08;;
62610;SDS011;48683;48.084;17.272;2023-02-24T03:52:23;30.38;;;17.30;;
62610;SDS011;48683;48.084;17.272;2023-02-24T03:57:46;28.85;;;17.50;;
62610;SDS011;48683;48.084;17.272;2023-02-24T04:00:22;27.65;;;16.70;;
62610;SDS011;48683;48.084;17.272;2023-02-24T04:03:12;34.88;;;18.27;;
62610;SDS011;48683;48.084;17.272;2023-02-24T04:09:04;28.10;;;16.95;;
62610;SDS011;48683;48.084;17.272;2023-02-24T04:14:19;30.83;;;17.25;;
62610;SDS011;48683;48.084;17.272;2023-02-24T04:16:56;31.50;;;17.70;;
62610;SDS011;48683;48.084;17.272;2023-02-24T04:19:27;32.22;;;17.50;;
62610;SDS011;48683;48.084;17.272;2023-02-24T04:21:56;27.50;;;17.17;;
62610;SDS011;48683;48.084;17.272;2023-02-24T04:24:24;30.65;;;17.88;;
62610;SDS011;48683;48.084;17.272;2023-02-24T04:26:52;33.22;;;18.40;;
62610;SDS011;48683;48.084;17.272;2023-02-24T04:29:23;30.88;;;18.40;;
62610;SDS011;48683;48.084;17.272;2023-02-24T04:31:52;31.90;;;18.33;;
62610;SDS011;48683;48.084;17.272;2023-02-24T04:34:24;34.45;;;18.45;;
62610;SDS011;48683;48.084;17.272;2023-02-24T04:36:50;32.97;;;18.55;;
62610;SDS011;48683;48.084;17.272;2023-02-24T04:39:18;36.80;;;18.13;;
62610;SDS011;48683;48.084;17.272;2023-02-24T04:41:47;32.05;;;18.88;;
62610;SDS011;48683;48.084;17.272;2023-02-24T04:44:17;28.98;;;17.67;;
62610;SDS011;48683;48.084;17.272;2023-02-24T04:46:45;32.70;;;18.38;;
62610;SDS011;48683;48.084;17.272;2023-02-24T04:49:11;29.17;;;17.45;;
62610;SDS011;48683;48.084;17.272;2023-02-24T04:51:37;30.80;;;18.40;;
62610;SDS011;48683;48.084;17.272;2023-02-24T04:54:06;30.38;;;17.98;;
62610;SDS011;48683;48.084;17.272;2023-02-24T04:56:39;33.55;;;18.35;;
62610;SDS011;48683;48.084;17.272;2023-02-24T04:59:05;35.47;;;18.33;;
62610;SDS011;48683;48.084;17.272;2023-02-24T05:01:32;27.70;;;17.92;;
62610;SDS011;48683;48.084;17.272;2023-02-24T05:03:57;31.67;;;18.08;;
62610;SDS011;48683;48.084;17.272;2023-02-24T05:06:24;30.70;;;19.50;;
62610;SDS011;48683;48.084;17.272;2023-02-24T05:08:49;30.50;;;17.75;;
62610;SDS011;48683;48.084;17.272;2023-02-24T05:11:16;32.30;;;17.25;;
62610;SDS011;48683;48.084;17.272;2023-02-24T05:13:42;30.30;;;19.15;;
62610;SDS011;48683;48.084;17.272;2023-02-24T05:16:12;27.00;;;16.13;;
62610;SDS011;48683;48.084;17.272;2023-02-24T05:18:39;30.23;;;18.27;;
62610;SDS011;48683;48.084;17.272;2023-02-24T05:23:56;29.88;;;17.35;;
62610;SDS011;48683;48.084;17.272;2023-02-24T05:26:23;28.20;;;16.95;;
62610;SDS011;48683;48.084;17.272;2023-02-24T05:28:49;24.30;;;16.63;;
62610;SDS011;48683;48.084;17.272;2023-02-24T05:31:17;27.20;;;16.83;;
62610;SDS011;48683;48.084;17.272;2023-02-24T05:33:45;33.50;;;17.63;;
62610;SDS011;48683;48.084;17.272;2023-02-24T05:36:16;26.40;;;17.13;;
62610;SDS011;48683;48.084;17.272;2023-02-24T05:38:46;32.08;;;18.88;;
62610;SDS011;48683;48.084;17.272;2023-02-24T05:41:14;29.13;;;17.42;;
62610;SDS011;48683;48.084;17.272;2023-02-24T05:43:42;28.65;;;17.23;;
62610;SDS011;48683;48.084;17.272;2023-02-24T05:46:14;30.67;;;19.02;;
62610;SDS011;48683;48.084;17.272;2023-02-24T05:48:41;34.03;;;19.27;;
62610;SDS011;48683;48.084;17.272;2023-02-24T05:51:07;36.38;;;17.88;;
62610;SDS011;48683;48.084;17.272;2023-02-24T05:53:36;27.30;;;17.20;;
62610;SDS011;48683;48.084;17.272;2023-02-24T05:56:06;29.60;;;17.30;;
62610;SDS011;48683;48.084;17.272;2023-02-24T05:58:32;31.58;;;18.77;;
62610;SDS011;48683;48.084;17.272;2023-02-24T06:00:58;30.75;;;18.02;;
62610;SDS011;48683;48.084;17.272;2023-02-24T06:03:30;35.42;;;18.10;;
62610;SDS011;48683;48.084;17.272;2023-02-24T06:05:59;32.95;;;18.40;;
62610;SDS011;48683;48.084;17.272;2023-02-24T06:08:32;35.42;;;19.58;;
62610;SDS011;48683;48.084;17.272;2023-02-24T06:11:06;31.13;;;18.02;;
62610;SDS011;48683;48.084;17.272;2023-02-24T06:13:35;29.33;;;18.13;;
62610;SDS011;48683;48.084;17.272;2023-02-24T06:16:02;34.83;;;19.70;;
62610;SDS011;48683;48.084;17.272;2023-02-24T06:20:54;34.67;;;19.20;;
62610;SDS011;48683;48.084;17.272;2023-02-24T06:23:19;37.92;;;18.88;;
62610;SDS011;48683;48.084;17.272;2023-02-24T06:25:44;32.10;;;19.13;;
62610;SDS011;48683;48.084;17.272;2023-02-24T06:28:10;32.72;;;19.70;;
62610;SDS011;48683;48.084;17.272;2023-02-24T06:30:35;34.03;;;18.88;;
62610;SDS011;48683;48.084;17.272;2023-02-24T06:33:01;33.85;;;19.45;;
62610;SDS011;48683;48.084;17.272;2023-02-24T06:35:29;31.48;;;18.30;;
62610;SDS011;48683;48.084;17.272;2023-02-24T06:37:56;33.00;;;18.83;;
62610;SDS011;48683;48.084;17.272;2023-02-24T06:40:22;32.90;;;18.60;;
62610;SDS011;48683;48.084;17.272;2023-02-24T06:42:49;38.92;;;19.67;;
62610;SDS011;48683;48.084;17.272;2023-02-24T06:45:19;38.05;;;20.30;;
62610;SDS011;48683;48.084;17.272;2023-02-24T06:47:45;35.40;;;21.13;;
62610;SDS011;48683;48.084;17.272;2023-02-24T06:50:13;43.65;;;23.23;;
62610;SDS011;48683;48.084;17.272;2023-02-24T06:52:46;37.38;;;22.02;;
62610;SDS011;48683;48.084;17.272;2023-02-24T06:55:13;39.17;;;22.55;;
62610;SDS011;48683;48.084;17.272;2023-02-24T06:57:56;35.72;;;22.15;;
62610;SDS011;48683;48.084;17.272;2023-02-24T07:00:27;38.63;;;21.67;;
62610;SDS011;48683;48.084;17.272;2023-02-24T07:03:06;39.08;;;24.35;;
62610;SDS011;48683;48.084;17.272;2023-02-24T07:08:17;35.95;;;21.70;;
62610;SDS011;48683;48.084;17.272;2023-02-24T07:10:56;36.53;;;20.80;;
62610;SDS011;48683;48.084;17.272;2023-02-24T07:13:24;49.50;;;26.70;;
62610;SDS011;48683;48.084;17.272;2023-02-24T07:15:53;63.28;;;37.78;;
62610;SDS011;48683;48.084;17.272;2023-02-24T07:18:19;56.47;;;34.92;;
62610;SDS011;48683;48.084;17.272;2023-02-24T07:20:46;45.58;;;25.23;;
62610;SDS011;48683;48.084;17.272;2023-02-24T07:23:13;41.22;;;24.48;;
62610;SDS011;48683;48.084;17.272;2023-02-24T07:28:07;37.45;;;20.63;;
62610;SDS011;48683;48.084;17.272;2023-02-24T07:30:32;41.45;;;22.73;;
62610;SDS011;48683;48.084;17.272;2023-02-24T07:32:58;36.67;;;22.05;;
62610;SDS011;48683;48.084;17.272;2023-02-24T07:35:24;38.58;;;20.63;;
62610;SDS011;48683;48.084;17.272;2023-02-24T07:37:49;120.38;;;63.42;;
62610;SDS011;48683;48.084;17.272;2023-02-24T07:40:15;43.05;;;25.75;;
62610;SDS011;48683;48.084;17.272;2023-02-24T07:42:42;44.47;;;24.38;;
62610;SDS011;48683;48.084;17.272;2023-02-24T07:45:08;39.70;;;23.17;;
62610;SDS011;48683;48.084;17.272;2023-02-24T07:47:34;42.37;;;25.00;;
62610;SDS011;48683;48.084;17.272;2023-02-24T07:50:00;43.85;;;26.75;;
62610;SDS011;48683;48.084;17.272;2023-02-24T07:52:27;40.72;;;24.05;;
62610;SDS011;48683;48.084;17.272;2023-02-24T07:54:56;37.72;;;21.50;;
62610;SDS011;48683;48.084;17.272;2023-02-24T07:57:22;43.47;;;22.58;;
62610;SDS011;48683;48.084;17.272;2023-02-24T07:59:49;40.17;;;23.27;;
62610;SDS011;48683;48.084;17.272;2023-02-24T08:02:14;40.38;;;23.67;;
62610;SDS011;48683;48.084;17.272;2023-02-24T08:04:40;42.25;;;23.80;;
62610;SDS011;48683;48.084;17.272;2023-02-24T08:07:12;35.72;;;23.00;;
62610;SDS011;48683;48.084;17.272;2023-02-24T08:09:38;37.28;;;22.25;;
62610;SDS011;48683;48.084;17.272;2023-02-24T08:12:10;35.88;;;22.80;;
62610;SDS011;48683;48.084;17.272;2023-02-24T08:14:42;38.47;;;23.88;;
62610;SDS011;48683;48.084;17.272;2023-02-24T08:17:14;38.50;;;26.50;;
62610;SDS011;48683;48.084;17.272;2023-02-24T08:19:44;46.45;;;27.42;;
62610;SDS011;48683;48.084;17.272;2023-02-24T08:22:11;44.08;;;26.63;;
62610;SDS011;48683;48.084;17.272;2023-02-24T08:24:58;46.78;;;28.83;;
62610;SDS011;48683;48.084;17.272;2023-02-24T08:27:25;43.38;;;29.10;;
62610;SDS011;48683;48.084;17.272;2023-02-24T08:29:56;49.97;;;30.20;;
62610;SDS011;48683;48.084;17.272;2023-02-24T08:35:15;50.42;;;31.73;;
62610;SDS011;48683;48.084;17.272;2023-02-24T08:40:13;52.22;;;33.35;;
62610;SDS011;48683;48.084;17.272;2023-02-24T08:43:38;46.05;;;31.50;;
62610;SDS011;48683;48.084;17.272;2023-02-24T08:48:18;49.10;;;31.55;;
62610;SDS011;48683;48.084;17.272;2023-02-24T08:51:01;53.70;;;33.15;;
62610;SDS011;48683;48.084;17.272;2023-02-24T08:53:46;49.30;;;32.65;;
62610;SDS011;48683;48.084;17.272;2023-02-24T08:56:12;54.63;;;35.28;;
62610;SDS011;48683;48.084;17.272;2023-02-24T08:58:47;50.03;;;33.70;;
62610;SDS011;48683;48.084;17.272;2023-02-24T09:01:15;53.70;;;33.90;;
62610;SDS011;48683;48.084;17.272;2023-02-24T09:03:44;51.28;;;33.80;;
62610;SDS011;48683;48.084;17.272;2023-02-24T09:06:11;50.83;;;33.38;;
62610;SDS011;48683;48.084;17.272;2023-02-24T09:08:41;54.60;;;35.58;;
62610;SDS011;48683;48.084;17.272;2023-02-24T09:11:11;49.35;;;34.08;;
62610;SDS011;48683;48.084;17.272;2023-02-24T09:13:39;52.63;;;33.33;;
62610;SDS011;48683;48.084;17.272;2023-02-24T09:18:41;52.33;;;33.55;;
62610;SDS011;48683;48.084;17.272;2023-02-24T09:21:08;52.70;;;34.83;;
62610;SDS011;48683;48.084;17.272;2023-02-24T09:24:00;51.55;;;34.47;;
62610;SDS011;48683;48.084;17.272;2023-02-24T09:26:32;53.90;;;33.70;;
62610;SDS011;48683;48.084;17.272;2023-02-24T09:29:07;48.28;;;32.45;;
62610;SDS011;48683;48.084;17.272;2023-02-24T09:31:57;49.35;;;32.70;;
62610;SDS011;48683;48.084;17.272;2023-02-24T09:34:33;51.58;;;32.97;;
62610;SDS011;48683;48.084;17.272;2023-02-24T09:36:59;46.03;;;32.65;;
62610;SDS011;48683;48.084;17.272;2023-02-24T09:39:27;49.15;;;33.55;;
62610;SDS011;48683;48.084;17.272;2023-02-24T09:42:20;47.72;;;33.88;;
62610;SDS011;48683;48.084;17.272;2023-02-24T09:44:55;52.83;;;33.67;;
62610;SDS011;48683;48.084;17.272;2023-02-24T09:47:27;50.63;;;33.85;;
62610;SDS011;48683;48.084;17.272;2023-02-24T09:52:43;55.20;;;35.70;;
62610;SDS011;48683;48.084;17.272;2023-02-24T10:01:16;57.97;;;38.00;;
62610;SDS011;48683;48.084;17.272;2023-02-24T10:06:57;54.28;;;37.83;;
62610;SDS011;48683;48.084;17.272;2023-02-24T10:09:34;57.47;;;38.70;;
62610;SDS011;48683;48.084;17.272;2023-02-24T10:17:42;51.05;;;36.40;;
62610;SDS011;48683;48.084;17.272;2023-02-24T10:20:18;53.97;;;35.80;;
62610;SDS011;48683;48.084;17.272;2023-02-24T10:23:04;56.88;;;37.47;;
62610;SDS011;48683;48.084;17.272;2023-02-24T10:33:55;60.47;;;38.83;;
62610;SDS011;48683;48.084;17.272;2023-02-24T10:36:25;51.97;;;36.42;;
62610;SDS011;48683;48.084;17.272;2023-02-24T10:41:56;55.47;;;38.65;;
62610;SDS011;48683;48.084;17.272;2023-02-24T10:44:47;59.15;;;38.60;;
62610;SDS011;48683;48.084;17.272;2023-02-24T10:47:24;59.97;;;39.33;;
62610;SDS011;48683;48.084;17.272;2023-02-24T10:49:58;56.08;;;39.53;;
62610;SDS011;48683;48.084;17.272;2023-02-24T10:52:28;52.75;;;38.00;;
62610;SDS011;48683;48.084;17.272;2023-02-24T11:01:28;54.13;;;37.33;;
62610;SDS011;48683;48.084;17.272;2023-02-24T11:04:15;58.35;;;38.75;;
62610;SDS011;48683;48.084;17.272;2023-02-24T11:07:10;53.90;;;37.40;;
62610;SDS011;48683;48.084;17.272;2023-02-24T11:09:48;55.50;;;37.53;;
62610;SDS011;48683;48.084;17.272;2023-02-24T11:12:22;54.13;;;36.78;;
62610;SDS011;48683;48.084;17.272;2023-02-24T11:15:18;51.10;;;34.47;;
62610;SDS011;48683;48.084;17.272;2023-02-24T11:18:04;46.28;;;33.28;;
62610;SDS011;48683;48.084;17.272;2023-02-24T11:20:41;49.35;;;35.33;;
62610;SDS011;48683;48.084;17.272;2023-02-24T11:23:12;51.78;;;35.55;;
62610;SDS011;48683;48.084;17.272;2023-02-24T11:25:41;53.60;;;35.13;;
62610;SDS011;48683;48.084;17.272;2023-02-24T11:36:58;43.83;;;31.48;;
62610;SDS011;48683;48.084;17.272;2023-02-24T11:42:32;46.55;;;33.17;;
62610;SDS011;48683;48.084;17.272;2023-02-24T11:45:08;46.78;;;33.22;;
62610;SDS011;48683;48.084;17.272;2023-02-24T11:47:47;48.65;;;34.22;;
62610;SDS011;48683;48.084;17.272;2023-02-24T11:50:25;45.60;;;33.63;;
62610;SDS011;48683;48.084;17.272;2023-02-24T11:52:57;48.90;;;33.05;;
62610;SDS011;48683;48.084;17.272;2023-02-24T11:55:39;46.75;;;32.60;;
62610;SDS011;48683;48.084;17.272;2023-02-24T11:58:11;45.70;;;32.90;;
62610;SDS011;48683;48.084;17.272;2023-02-24T12:00:46;48.42;;;34.22;;
62610;SDS011;48683;48.084;17.272;2023-02-24T12:03:18;46.80;;;34.03;;
62610;SDS011;48683;48.084;17.272;2023-02-24T12:05:48;46.33;;;34.28;;
62610;SDS011;48683;48.084;17.272;2023-02-24T12:08:36;42.88;;;33.22;;
62610;SDS011;48683;48.084;17.272;2023-02-24T12:11:09;40.30;;;29.90;;
62610;SDS011;48683;48.084;17.272;2023-02-24T12:16:32;42.22;;;30.02;;
62610;SDS011;48683;48.084;17.272;2023-02-24T12:19:03;46.47;;;32.28;;
62610;SDS011;48683;48.084;17.272;2023-02-24T12:21:38;42.70;;;30.35;;
62610;SDS011;48683;48.084;17.272;2023-02-24T12:24:11;48.10;;;30.98;;
62610;SDS011;48683;48.084;17.272;2023-02-24T12:26:48;45.42;;;31.73;;
62610;SDS011;48683;48.084;17.272;2023-02-24T12:29:39;43.38;;;29.77;;
62610;SDS011;48683;48.084;17.272;2023-02-24T12:32:17;42.03;;;27.70;;
62610;SDS011;48683;48.084;17.272;2023-02-24T12:37:56;42.55;;;28.45;;
62610;SDS011;48683;48.084;17.272;2023-02-24T12:43:23;41.92;;;28.50;;
62610;SDS011;48683;48.084;17.272;2023-02-24T12:46:05;35.20;;;27.02;;
62610;SDS011;48683;48.084;17.272;2023-02-24T12:51:16;41.00;;;27.95;;
62610;SDS011;48683;48.084;17.272;2023-02-24T12:53:55;41.42;;;27.98;;
62610;SDS011;48683;48.084;17.272;2023-02-24T12:59:16;38.15;;;26.73;;
62610;SDS011;48683;48.084;17.272;2023-02-24T13:01:52;39.38;;;28.08;;
62610;SDS011;48683;48.084;17.272;2023-02-24T13:04:42;39.00;;;26.60;;
62610;SDS011;48683;48.084;17.272;2023-02-24T13:10:09;40.97;;;28.73;;
62610;SDS011;48683;48.084;17.272;2023-02-24T13:15:27;35.78;;;25.65;;
62610;SDS011;48683;48.084;17.272;2023-02-24T13:17:55;37.50;;;26.55;;
62610;SDS011;48683;48.084;17.272;2023-02-24T13:20:25;40.70;;;27.92;;
62610;SDS011;48683;48.084;17.272;2023-02-24T13:22:54;42.53;;;29.85;;
62610;SDS011;48683;48.084;17.272;2023-02-24T13:25:28;42.67;;;28.50;;
62610;SDS011;48683;48.084;17.272;2023-02-24T13:28:01;36.65;;;25.38;;
62610;SDS011;48683;48.084;17.272;2023-02-24T13:30:39;39.25;;;26.10;;
62610;SDS011;48683;48.084;17.272;2023-02-24T13:33:19;36.45;;;24.77;;
62610;SDS011;48683;48.084;17.272;2023-02-24T13:35:52;32.45;;;23.02;;
62610;SDS011;48683;48.084;17.272;2023-02-24T13:41:21;35.13;;;24.25;;
62610;SDS011;48683;48.084;17.272;2023-02-24T13:44:20;34.42;;;23.30;;
62610;SDS011;48683;48.084;17.272;2023-02-24T13:49:35;34.17;;;23.63;;
62610;SDS011;48683;48.084;17.272;2023-02-24T13:58:02;34.20;;;23.42;;
62610;SDS011;48683;48.084;17.272;2023-02-24T14:00:51;32.50;;;23.45;;
62610;SDS011;48683;48.084;17.272;2023-02-24T14:03:31;35.63;;;22.98;;
62610;SDS011;48683;48.084;17.272;2023-02-24T14:08:26;33.20;;;22.95;;
62610;SDS011;48683;48.084;17.272;2023-02-24T14:11:02;30.45;;;21.98;;
62610;SDS011;48683;48.084;17.272;2023-02-24T14:13:28;32.05;;;23.33;;
62610;SDS011;48683;48.084;17.272;2023-02-24T14:15:58;35.58;;;24.67;;
62610;SDS011;48683;48.084;17.272;2023-02-24T14:20:52;34.38;;;24.67;;
62610;SDS011;48683;48.084;17.272;2023-02-24T14:23:29;37.60;;;25.27;;
62610;SDS011;48683;48.084;17.272;2023-02-24T14:26:07;35.40;;;25.10;;
62610;SDS011;48683;48.084;17.272;2023-02-24T14:28:36;38.60;;;26.73;;
62610;SDS011;48683;48.084;17.272;2023-02-24T14:31:13;40.45;;;27.42;;
62610;SDS011;48683;48.084;17.272;2023-02-24T14:36:12;39.00;;;24.08;;
62610;SDS011;48683;48.084;17.272;2023-02-24T14:38:41;37.50;;;25.95;;
62610;SDS011;48683;48.084;17.272;2023-02-24T14:41:21;40.55;;;25.80;;
62610;SDS011;48683;48.084;17.272;2023-02-24T14:43:49;36.15;;;25.48;;
62610;SDS011;48683;48.084;17.272;2023-02-24T14:46:15;34.15;;;24.73;;
62610;SDS011;48683;48.084;17.272;2023-02-24T14:48:41;42.13;;;27.17;;
62610;SDS011;48683;48.084;17.272;2023-02-24T14:51:12;59.40;;;33.40;;
62610;SDS011;48683;48.084;17.272;2023-02-24T14:53:54;50.30;;;30.65;;
62610;SDS011;48683;48.084;17.272;2023-02-24T14:56:24;43.13;;;28.63;;
62610;SDS011;48683;48.084;17.272;2023-02-24T14:58:56;37.33;;;26.33;;
62610;SDS011;48683;48.084;17.272;2023-02-24T15:01:40;41.58;;;27.75;;
62610;SDS011;48683;48.084;17.272;2023-02-24T15:06:56;37.10;;;25.75;;
62610;SDS011;48683;48.084;17.272;2023-02-24T15:09:24;35.37;;;25.00;;
62610;SDS011;48683;48.084;17.272;2023-02-24T15:11:53;36.00;;;24.55;;
62610;SDS011;48683;48.084;17.272;2023-02-24T15:14:23;37.72;;;24.55;;
62610;SDS011;48683;48.084;17.272;2023-02-24T15:17:14;37.95;;;24.38;;
62610;SDS011;48683;48.084;17.272;2023-02-24T15:19:42;38.83;;;23.92;;
62610;SDS011;48683;48.084;17.272;2023-02-24T15:22:17;38.33;;;24.80;;
62610;SDS011;48683;48.084;17.272;2023-02-24T15:24:47;44.05;;;25.73;;
62610;SDS011;48683;48.084;17.272;2023-02-24T15:29:44;34.63;;;23.83;;
62610;SDS011;48683;48.084;17.272;2023-02-24T15:32:29;33.45;;;22.35;;
62610;SDS011;48683;48.084;17.272;2023-02-24T15:34:56;37.25;;;24.15;;
62610;SDS011;48683;48.084;17.272;2023-02-24T15:37:23;38.58;;;24.25;;
62610;SDS011;48683;48.084;17.272;2023-02-24T15:39:51;37.38;;;24.75;;
62610;SDS011;48683;48.084;17.272;2023-02-24T15:42:27;36.97;;;23.55;;
62610;SDS011;48683;48.084;17.272;2023-02-24T15:44:57;35.25;;;24.08;;
62610;SDS011;48683;48.084;17.272;2023-02-24T15:47:28;30.58;;;22.13;;
62610;SDS011;48683;48.084;17.272;2023-02-24T15:49:56;35.15;;;23.80;;
62610;SDS011;48683;48.084;17.272;2023-02-24T15:52:23;36.75;;;25.67;;
62610;SDS011;48683;48.084;17.272;2023-02-24T15:54:50;37.38;;;25.55;;
62610;SDS011;48683;48.084;17.272;2023-02-24T15:57:16;39.72;;;26.88;;
62610;SDS011;48683;48.084;17.272;2023-02-24T15:59:43;48.27;;;29.47;;
62610;SDS011;48683;48.084;17.272;2023-02-24T16:02:12;35.67;;;23.83;;
62610;SDS011;48683;48.084;17.272;2023-02-24T16:04:41;39.85;;;27.85;;
62610;SDS011;48683;48.084;17.272;2023-02-24T16:07:07;40.70;;;27.40;;
62610;SDS011;48683;48.084;17.272;2023-02-24T16:09:36;40.15;;;26.60;;
62610;SDS011;48683;48.084;17.272;2023-02-24T16:12:04;42.85;;;27.30;;
62610;SDS011;48683;48.084;17.272;2023-02-24T16:14:34;40.38;;;25.88;;
62610;SDS011;48683;48.084;17.272;2023-02-24T16:17:00;38.00;;;25.42;;
62610;SDS011;48683;48.084;17.272;2023-02-24T16:19:28;37.20;;;25.55;;
62610;SDS011;48683;48.084;17.272;2023-02-24T16:21:54;37.42;;;23.83;;
62610;SDS011;48683;48.084;17.272;2023-02-24T16:24:19;39.03;;;26.35;;
62610;SDS011;48683;48.084;17.272;2023-02-24T16:26:44;41.78;;;26.30;;
62610;SDS011;48683;48.084;17.272;2023-02-24T16:29:13;39.83;;;24.88;;
62610;SDS011;48683;48.084;17.272;2023-02-24T16:31:39;38.65;;;25.15;;
62610;SDS011;48683;48.084;17.272;2023-02-24T16:34:05;35.13;;;24.02;;
62610;SDS011;48683;48.084;17.272;2023-02-24T16:36:32;32.55;;;23.27;;
62610;SDS011;48683;48.084;17.272;2023-02-24T16:38:57;36.10;;;25.10;;
62610;SDS011;48683;48.084;17.272;2023-02-24T16:43:49;33.90;;;21.93;;
62610;SDS011;48683;48.084;17.272;2023-02-24T16:46:16;35.45;;;24.38;;
62610;SDS011;48683;48.084;17.272;2023-02-24T16:48:49;39.70;;;24.67;;
62610;SDS011;48683;48.084;17.272;2023-02-24T16:51:17;37.65;;;24.05;;
62610;SDS011;48683;48.084;17.272;2023-02-24T16:53:43;39.70;;;26.10;;
62610;SDS011;48683;48.084;17.272;2023-02-24T16:56:08;37.88;;;24.65;;
62610;SDS011;48683;48.084;17.272;2023-02-24T16:58:34;40.72;;;25.08;;
62610;SDS011;48683;48.084;17.272;2023-02-24T17:01:00;37.42;;;25.35;;
62610;SDS011;48683;48.084;17.272;2023-02-24T17:03:59;38.45;;;25.35;;
62610;SDS011;48683;48.084;17.272;2023-02-24T17:06:18;38.67;;;25.20;;
62610;SDS011;48683;48.084;17.272;2023-02-24T17:08:44;45.83;;;27.40;;
62610;SDS011;48683;48.084;17.272;2023-02-24T17:11:18;45.72;;;28.95;;
62610;SDS011;48683;48.084;17.272;2023-02-24T17:13:44;46.83;;;26.58;;
62610;SDS011;48683;48.084;17.272;2023-02-24T17:16:10;43.75;;;27.45;;
62610;SDS011;48683;48.084;17.272;2023-02-24T17:18:35;45.53;;;28.40;;
62610;SDS011;48683;48.084;17.272;2023-02-24T17:21:01;40.45;;;25.77;;